createdAt,value
2017-09-18T00:00:03.146Z,10.20
2017-09-18T00:02:30.749Z,10.20
2017-09-18T00:04:58.345Z,10.20
2017-09-18T00:07:26.076Z,10.20
2017-09-18T00:09:53.673Z,10.20
2017-09-18T00:12:21.266Z,10.20
2017-09-18T00:14:48.979Z,10.20
2017-09-18T00:17:16.559Z,10.20
2017-09-18T00:19:44.138Z,10.20
2017-09-18T00:22:11.951Z,10.20
2017-09-18T00:24:39.528Z,10.20
2017-09-18T00:27:07.107Z,10.20
2017-09-18T00:29:34.728Z,10.30
2017-09-18T00:32:02.306Z,10.30
2017-09-18T00:34:29.892Z,10.30
2017-09-18T00:36:57.533Z,10.30
2017-09-18T00:39:25.111Z,10.30
2017-09-18T00:41:54.206Z,10.40
2017-09-18T00:44:21.843Z,10.40
2017-09-18T00:46:49.410Z,10.40
2017-09-18T00:49:17.755Z,10.50
2017-09-18T00:51:45.383Z,10.40
2017-09-18T00:54:12.963Z,10.50
2017-09-18T00:56:41.306Z,10.40
2017-09-18T00:59:09.809Z,10.40
2017-09-18T01:01:37.382Z,10.40
2017-09-18T01:04:04.961Z,10.50
2017-09-18T01:06:32.831Z,10.50
2017-09-18T01:09:01.184Z,10.40
2017-09-18T01:11:29.522Z,10.50
2017-09-18T01:13:57.247Z,10.50
2017-09-18T01:16:24.818Z,10.50
2017-09-18T01:18:52.410Z,10.50
2017-09-18T01:21:20.153Z,10.50
2017-09-18T01:23:47.752Z,10.50
2017-09-18T01:26:15.343Z,10.50
2017-09-18T01:28:42.969Z,10.50
2017-09-18T01:31:11.327Z,10.50
2017-09-18T01:33:39.693Z,10.50
2017-09-18T01:36:07.441Z,10.50
2017-09-18T01:38:35.023Z,10.50
2017-09-18T01:41:02.599Z,10.50
2017-09-18T01:43:30.328Z,10.50
2017-09-18T01:45:57.917Z,10.50
2017-09-18T01:48:26.277Z,10.50
2017-09-18T01:50:54.794Z,10.50
2017-09-18T01:53:22.374Z,10.50
2017-09-18T01:55:50.721Z,10.50
2017-09-18T01:58:18.372Z,10.50
2017-09-18T02:00:45.950Z,10.50
2017-09-18T02:03:13.524Z,10.50
2017-09-18T02:05:41.172Z,10.50
2017-09-18T02:08:08.760Z,10.50
2017-09-18T02:10:37.113Z,10.60
2017-09-18T02:13:04.853Z,10.50
2017-09-18T02:15:32.449Z,10.60
2017-09-18T02:18:00.030Z,10.60
2017-09-18T02:20:27.764Z,10.60
2017-09-18T02:22:55.352Z,10.60
2017-09-18T02:25:23.710Z,10.60
2017-09-18T02:27:51.365Z,10.60
2017-09-18T02:30:19.720Z,10.60
2017-09-18T02:32:48.067Z,10.60
2017-09-18T02:35:15.701Z,10.60
2017-09-18T02:37:43.274Z,10.60
2017-09-18T02:40:11.633Z,10.60
2017-09-18T02:42:40.015Z,10.50
2017-09-18T02:45:07.599Z,10.50
2017-09-18T02:47:35.183Z,10.50
2017-09-18T02:50:03.688Z,10.60
2017-09-18T02:52:31.276Z,10.60
2017-09-18T02:54:58.870Z,10.60
2017-09-18T02:57:26.517Z,10.50
2017-09-18T02:59:54.099Z,10.50
2017-09-18T03:02:22.455Z,10.50
2017-09-18T03:04:50.086Z,10.50
2017-09-18T03:07:17.662Z,10.50
2017-09-18T03:09:45.244Z,10.50
2017-09-18T03:12:13.087Z,10.60
2017-09-18T03:14:41.424Z,10.50
2017-09-18T03:17:09.002Z,10.50
2017-09-18T03:19:36.843Z,10.50
2017-09-18T03:22:04.414Z,10.60
2017-09-18T03:24:32.008Z,10.60
2017-09-18T03:26:59.754Z,10.60
2017-09-18T03:29:27.327Z,10.60
2017-09-18T03:31:54.916Z,10.60
2017-09-18T03:34:23.328Z,10.60
2017-09-18T03:36:50.920Z,10.60
2017-09-18T03:39:18.505Z,10.60
2017-09-18T03:41:46.912Z,10.60
2017-09-18T03:44:14.505Z,10.60
2017-09-18T03:46:42.847Z,10.60
2017-09-18T03:49:10.577Z,10.60
2017-09-18T03:51:38.154Z,10.60
2017-09-18T03:54:05.738Z,10.60
2017-09-18T03:56:33.368Z,10.50
2017-09-18T03:59:00.943Z,10.50
2017-09-18T04:01:28.539Z,10.50
2017-09-18T04:03:57.502Z,10.50
2017-09-18T04:06:25.083Z,10.50
2017-09-18T04:08:52.672Z,10.50
2017-09-18T04:11:20.305Z,10.40
2017-09-18T04:13:47.878Z,10.40
2017-09-18T04:16:15.472Z,10.40
2017-09-18T04:18:43.120Z,10.30
2017-09-18T04:21:10.713Z,10.30
2017-09-18T04:23:38.317Z,10.30
2017-09-18T04:26:06.144Z,10.40
2017-09-18T04:28:33.742Z,10.30
2017-09-18T04:31:01.337Z,10.40
2017-09-18T04:33:29.065Z,10.30
2017-09-18T04:35:57.411Z,10.30
2017-09-18T04:38:25.005Z,10.30
2017-09-18T04:40:52.635Z,10.30
2017-09-18T04:43:20.216Z,10.30
2017-09-18T04:45:47.813Z,10.30
2017-09-18T04:48:15.457Z,10.30
2017-09-18T04:50:43.039Z,10.30
2017-09-18T04:53:10.649Z,10.30
2017-09-18T04:55:38.290Z,10.30
2017-09-18T04:58:06.644Z,10.30
2017-09-18T05:00:34.996Z,10.20
2017-09-18T05:03:03.510Z,10.20
2017-09-18T05:05:31.112Z,10.20
2017-09-18T05:07:59.459Z,10.10
2017-09-18T05:10:27.201Z,10.20
2017-09-18T05:12:54.783Z,10.20
2017-09-18T05:15:22.407Z,10.20
2017-09-18T05:17:50.823Z,10.20
2017-09-18T05:20:18.402Z,10.20
2017-09-18T05:22:46.763Z,10.20
2017-09-18T05:25:14.435Z,10.20
2017-09-18T05:27:42.019Z,10.20
2017-09-18T05:30:09.600Z,10.20
2017-09-18T05:32:37.231Z,10.30
2017-09-18T05:35:04.823Z,10.30
2017-09-18T05:37:32.409Z,10.30
2017-09-18T05:40:00.146Z,10.30
2017-09-18T05:42:27.741Z,10.40
2017-09-18T05:44:56.082Z,10.50
2017-09-18T05:47:23.721Z,10.50
2017-09-18T05:49:51.302Z,10.90
2017-09-18T05:52:18.882Z,11.30
2017-09-18T05:54:46.517Z,11.50
2017-09-18T05:57:14.097Z,11.60
2017-09-18T05:59:42.469Z,11.80
2017-09-18T06:02:10.137Z,11.70
2017-09-18T06:04:38.482Z,11.90
2017-09-18T06:07:06.840Z,12.20
2017-09-18T06:09:34.477Z,12.10
2017-09-18T06:12:02.081Z,12.40
2017-09-18T06:14:29.676Z,12.90
2017-09-18T06:16:57.311Z,14.60
2017-09-18T06:19:24.903Z,15.90
2017-09-18T06:21:52.487Z,16.00
2017-09-18T06:24:20.130Z,15.80
2017-09-18T06:26:47.725Z,15.60
2017-09-18T06:29:15.311Z,15.60
2017-09-18T06:31:42.947Z,15.50
2017-09-18T06:34:10.526Z,15.50
2017-09-18T06:36:38.102Z,15.50
2017-09-18T06:39:05.829Z,15.40
2017-09-18T06:41:34.206Z,15.40
2017-09-18T06:44:02.562Z,15.60
2017-09-18T06:46:30.430Z,15.60
2017-09-18T06:48:58.021Z,15.90
2017-09-18T06:51:25.614Z,16.10
2017-09-18T06:53:53.363Z,16.00
2017-09-18T06:56:20.956Z,15.90
2017-09-18T06:58:48.552Z,15.80
2017-09-18T07:01:16.197Z,16.00
2017-09-18T07:03:43.799Z,16.20
2017-09-18T07:06:11.374Z,16.50
2017-09-18T07:08:39.943Z,16.60
2017-09-18T07:11:07.545Z,16.60
2017-09-18T07:13:35.145Z,16.60
2017-09-18T07:16:02.784Z,16.60
2017-09-18T07:18:30.359Z,16.60
2017-09-18T07:20:57.940Z,16.40
2017-09-18T07:23:25.596Z,16.40
2017-09-18T07:25:53.948Z,16.30
2017-09-18T07:28:21.535Z,16.30
2017-09-18T07:30:49.275Z,16.30
2017-09-18T07:33:16.881Z,16.30
2017-09-18T07:35:44.476Z,16.10
2017-09-18T07:38:12.110Z,15.90
2017-09-18T07:40:39.691Z,15.70
2017-09-18T07:43:07.289Z,15.70
2017-09-18T07:45:34.936Z,15.70
2017-09-18T07:48:02.522Z,15.70
2017-09-18T07:50:30.098Z,15.90
2017-09-18T07:52:57.718Z,15.90
2017-09-18T07:55:25.292Z,16.10
2017-09-18T07:57:53.657Z,16.50
2017-09-18T08:00:22.070Z,16.70
2017-09-18T08:02:49.664Z,16.70
2017-09-18T08:05:18.023Z,17.10
2017-09-18T08:07:45.660Z,17.10
2017-09-18T08:10:13.248Z,17.20
2017-09-18T08:12:40.845Z,17.30
2017-09-18T08:15:08.486Z,17.50
2017-09-18T08:17:36.181Z,17.70
2017-09-18T08:20:03.772Z,18.00
2017-09-18T08:22:31.399Z,18.20
2017-09-18T08:24:58.996Z,18.30
2017-09-18T08:27:27.341Z,18.50
2017-09-18T08:29:54.967Z,18.40
2017-09-18T08:32:22.562Z,18.70
2017-09-18T08:34:50.156Z,18.90
2017-09-18T08:37:17.901Z,19.10
2017-09-18T08:39:45.493Z,19.40
2017-09-18T08:42:13.071Z,19.90
2017-09-18T08:44:40.702Z,19.70
2017-09-18T08:47:08.293Z,19.50
2017-09-18T08:49:35.889Z,19.50
2017-09-18T08:52:03.524Z,19.40
2017-09-18T08:54:31.212Z,19.30
2017-09-18T08:56:58.796Z,19.10
2017-09-18T08:59:27.210Z,19.40
2017-09-18T09:01:54.795Z,19.40
2017-09-18T09:04:23.153Z,19.40
2017-09-18T09:06:51.552Z,19.60
2017-09-18T09:09:19.144Z,19.60
2017-09-18T09:11:46.732Z,19.70
2017-09-18T09:14:14.467Z,20.00
2017-09-18T09:16:42.063Z,20.00
2017-09-18T09:19:09.639Z,19.80
2017-09-18T09:21:38.023Z,19.50
2017-09-18T09:24:05.604Z,19.50
2017-09-18T09:26:33.188Z,19.30
2017-09-18T09:29:00.807Z,19.00
2017-09-18T09:31:28.400Z,18.80
2017-09-18T09:33:55.974Z,18.50
2017-09-18T09:36:23.709Z,18.20
2017-09-18T09:38:51.291Z,18.30
2017-09-18T09:41:18.889Z,18.30
2017-09-18T09:43:46.619Z,18.30
2017-09-18T09:46:14.223Z,18.30
2017-09-18T09:48:41.809Z,18.30
2017-09-18T09:51:10.378Z,18.70
2017-09-18T09:53:37.983Z,18.70
2017-09-18T09:56:05.568Z,19.20
2017-09-18T09:58:33.411Z,19.50
2017-09-18T10:01:01.761Z,19.10
2017-09-18T10:03:30.185Z,18.90
2017-09-18T10:05:58.029Z,18.90
2017-09-18T10:08:25.611Z,18.80
2017-09-18T10:10:53.187Z,18.60
2017-09-18T10:13:20.823Z,18.60
2017-09-18T10:15:49.181Z,18.60
2017-09-18T10:18:17.523Z,18.60
2017-09-18T10:20:45.149Z,18.60
2017-09-18T10:23:13.482Z,18.70
2017-09-18T10:25:41.072Z,18.70
2017-09-18T10:28:09.565Z,18.60
2017-09-18T10:30:37.139Z,18.60
2017-09-18T10:33:04.734Z,18.60
2017-09-18T10:35:33.133Z,18.60
2017-09-18T10:38:00.725Z,18.60
2017-09-18T10:40:28.313Z,18.50
2017-09-18T10:42:55.962Z,18.50
2017-09-18T10:45:23.534Z,18.60
2017-09-18T10:47:51.108Z,18.70
2017-09-18T10:50:18.848Z,19.00
2017-09-18T10:52:46.438Z,19.30
2017-09-18T10:55:14.023Z,19.50
2017-09-18T10:57:41.656Z,19.80
2017-09-18T11:00:09.249Z,20.20
2017-09-18T11:02:37.601Z,20.30
2017-09-18T11:05:05.245Z,20.20
2017-09-18T11:07:32.814Z,20.10
2017-09-18T11:10:00.395Z,20.00
2017-09-18T11:12:28.032Z,20.10
2017-09-18T11:14:55.617Z,20.00
2017-09-18T11:17:23.212Z,19.90
2017-09-18T11:19:50.864Z,19.70
2017-09-18T11:22:18.448Z,19.50
2017-09-18T11:24:46.032Z,19.30
2017-09-18T11:27:13.669Z,19.10
2017-09-18T11:29:41.243Z,18.80
2017-09-18T11:32:08.815Z,18.60
2017-09-18T11:34:36.621Z,18.50
2017-09-18T11:37:04.190Z,18.70
2017-09-18T11:39:31.759Z,18.80
2017-09-18T11:41:59.393Z,18.70
2017-09-18T11:44:26.980Z,18.60
2017-09-18T11:46:55.380Z,18.80
2017-09-18T11:49:23.010Z,18.70
2017-09-18T11:51:50.597Z,18.90
2017-09-18T11:54:18.185Z,18.90
2017-09-18T11:56:45.829Z,19.10
2017-09-18T11:59:13.398Z,19.20
2017-09-18T12:01:40.990Z,19.40
2017-09-18T12:04:09.397Z,19.00
2017-09-18T12:06:36.984Z,19.00
2017-09-18T12:09:05.333Z,18.90
2017-09-18T12:11:33.142Z,18.80
2017-09-18T12:14:00.729Z,18.70
2017-09-18T12:16:28.306Z,18.60
2017-09-18T12:18:56.837Z,18.60
2017-09-18T12:21:24.485Z,18.60
2017-09-18T12:23:52.049Z,18.60
2017-09-18T12:26:19.679Z,18.60
2017-09-18T12:28:47.288Z,18.50
2017-09-18T12:31:14.888Z,18.40
2017-09-18T12:33:43.408Z,18.30
2017-09-18T12:36:10.992Z,18.30
2017-09-18T12:38:38.586Z,18.30
2017-09-18T12:41:06.202Z,18.20
2017-09-18T12:43:34.563Z,18.00
2017-09-18T12:46:02.904Z,17.90
2017-09-18T12:48:30.523Z,17.90
2017-09-18T12:50:58.103Z,18.00
2017-09-18T12:53:26.462Z,18.10
2017-09-18T12:55:55.042Z,18.40
2017-09-18T12:58:23.397Z,18.70
2017-09-18T13:00:52.033Z,18.90
2017-09-18T13:03:19.999Z,18.90
2017-09-18T13:05:48.347Z,19.30
2017-09-18T13:08:16.095Z,19.30
2017-09-18T13:10:44.031Z,19.60
2017-09-18T13:13:12.485Z,19.40
2017-09-18T13:15:40.076Z,19.40
2017-09-18T13:18:07.804Z,19.20
2017-09-18T13:20:35.550Z,19.10
2017-09-18T13:23:03.136Z,19.00
2017-09-18T13:25:30.770Z,19.00
2017-09-18T13:27:59.120Z,19.30
2017-09-18T13:30:28.205Z,19.40
2017-09-18T13:32:55.971Z,19.40
2017-09-18T13:35:24.324Z,19.20
2017-09-18T13:37:52.684Z,19.00
2017-09-18T13:40:21.154Z,19.00
2017-09-18T13:42:49.499Z,18.90
2017-09-18T13:45:17.960Z,18.90
2017-09-18T13:47:45.682Z,18.80
2017-09-18T13:50:13.277Z,18.70
2017-09-18T13:52:41.622Z,18.50
2017-09-18T13:55:09.279Z,18.50
2017-09-18T13:57:37.637Z,18.40
2017-09-18T14:00:06.000Z,18.50
2017-09-18T14:02:34.410Z,18.50
2017-09-18T14:05:02.005Z,18.50
2017-09-18T14:07:30.359Z,18.40
2017-09-18T14:09:58.000Z,18.40
2017-09-18T14:12:25.587Z,18.40
2017-09-18T14:14:53.457Z,18.50
2017-09-18T14:17:21.087Z,18.60
2017-09-18T14:19:48.682Z,18.70
2017-09-18T14:22:16.251Z,18.80
2017-09-18T14:24:44.672Z,18.60
2017-09-18T14:27:12.250Z,18.60
2017-09-18T14:29:40.598Z,18.30
2017-09-18T14:32:08.234Z,18.30
2017-09-18T14:34:35.835Z,18.20
2017-09-18T14:37:03.427Z,18.20
2017-09-18T14:39:31.066Z,18.20
2017-09-18T14:42:00.168Z,18.60
2017-09-18T14:44:28.532Z,18.80
2017-09-18T14:46:56.944Z,19.00
2017-09-18T14:49:24.523Z,19.00
2017-09-18T14:51:52.099Z,19.20
2017-09-18T14:54:19.719Z,19.30
2017-09-18T14:56:48.080Z,19.30
2017-09-18T14:59:15.669Z,19.30
2017-09-18T15:01:43.407Z,19.20
2017-09-18T15:04:10.988Z,19.40
2017-09-18T15:06:38.559Z,19.60
2017-09-18T15:09:06.204Z,19.70
2017-09-18T15:11:34.559Z,19.90
2017-09-18T15:14:02.135Z,19.90
2017-09-18T15:16:29.897Z,19.80
2017-09-18T15:18:57.462Z,19.70
2017-09-18T15:21:25.045Z,19.70
2017-09-18T15:23:53.653Z,19.60
2017-09-18T15:26:21.217Z,19.60
2017-09-18T15:28:48.812Z,19.60
2017-09-18T15:31:17.203Z,19.40
2017-09-18T15:33:45.251Z,19.40
2017-09-18T15:36:12.841Z,19.20
2017-09-18T15:38:40.476Z,19.00
2017-09-18T15:41:08.089Z,18.90
2017-09-18T15:43:35.681Z,18.70
2017-09-18T15:46:04.214Z,18.60
2017-09-18T15:48:31.809Z,18.60
2017-09-18T15:51:00.160Z,18.40
2017-09-18T15:53:27.796Z,18.30
2017-09-18T15:55:55.387Z,18.20
2017-09-18T15:58:22.970Z,18.00
2017-09-18T16:00:50.595Z,17.80
2017-09-18T16:03:18.171Z,17.70
2017-09-18T16:05:45.761Z,17.50
2017-09-18T16:08:13.409Z,17.40
2017-09-18T16:10:41.009Z,17.30
2017-09-18T16:13:08.584Z,17.10
2017-09-18T16:15:37.111Z,16.90
2017-09-18T16:18:04.712Z,16.90
2017-09-18T16:20:32.294Z,16.80
2017-09-18T16:22:59.956Z,16.70
2017-09-18T16:25:27.539Z,16.70
2017-09-18T16:27:55.118Z,16.70
2017-09-18T16:30:22.758Z,16.70
2017-09-18T16:32:50.376Z,16.60
2017-09-18T16:35:18.070Z,16.70
2017-09-18T16:37:45.698Z,16.60
2017-09-18T16:40:13.292Z,16.50
2017-09-18T16:42:41.637Z,16.30
2017-09-18T16:45:09.300Z,16.30
2017-09-18T16:47:37.653Z,16.20
2017-09-18T16:50:06.005Z,16.10
2017-09-18T16:52:33.777Z,16.10
2017-09-18T16:55:02.133Z,15.90
2017-09-18T16:57:30.501Z,15.90
2017-09-18T17:00:20.251Z,15.80
2017-09-18T17:02:48.606Z,15.70
2017-09-18T17:05:16.200Z,15.70
2017-09-18T17:07:44.057Z,15.70
2017-09-18T17:10:11.645Z,15.60
2017-09-18T17:12:39.234Z,15.50
2017-09-18T17:15:07.061Z,15.40
2017-09-18T17:17:35.428Z,15.30
2017-09-18T17:20:03.001Z,15.30
2017-09-18T17:22:30.615Z,15.30
2017-09-18T17:24:58.196Z,15.20
2017-09-18T17:27:25.781Z,15.20
2017-09-18T17:29:53.414Z,15.20
2017-09-18T17:32:20.982Z,15.20
2017-09-18T17:34:49.341Z,15.10
2017-09-18T17:37:17.825Z,15.00
2017-09-18T17:39:45.399Z,15.00
2017-09-18T17:42:12.987Z,15.00
2017-09-18T17:44:40.609Z,15.00
2017-09-18T17:47:08.188Z,15.00
2017-09-18T17:49:36.539Z,14.90
2017-09-18T17:52:05.222Z,14.90
2017-09-18T17:54:33.560Z,14.80
2017-09-18T17:57:01.907Z,14.80
2017-09-18T17:59:29.575Z,14.80
2017-09-18T18:01:57.155Z,14.80
2017-09-18T18:04:24.749Z,14.70
2017-09-18T18:06:52.388Z,14.70
2017-09-18T18:09:19.976Z,14.60
2017-09-18T18:11:47.558Z,14.70
2017-09-18T18:14:15.174Z,14.60
2017-09-18T18:16:42.758Z,14.60
2017-09-18T18:19:10.335Z,14.60
2017-09-18T18:21:38.723Z,14.40
2017-09-18T18:24:06.295Z,14.50
2017-09-18T18:26:33.868Z,14.40
2017-09-18T18:29:01.514Z,14.30
2017-09-18T18:31:29.088Z,14.30
2017-09-18T18:33:56.668Z,14.30
2017-09-18T18:36:24.382Z,14.30
2017-09-18T18:38:51.997Z,14.20
2017-09-18T18:41:19.588Z,14.20
2017-09-18T18:43:47.232Z,14.20
2017-09-18T18:46:15.159Z,14.20
2017-09-18T18:48:42.869Z,14.20
2017-09-18T18:51:10.502Z,14.20
2017-09-18T18:53:38.085Z,14.20
2017-09-18T18:56:09.372Z,14.20
2017-09-18T18:58:37.137Z,14.20
2017-09-18T19:01:04.742Z,14.20
2017-09-18T19:03:32.328Z,14.20
2017-09-18T19:06:00.048Z,14.20
2017-09-18T19:08:27.628Z,14.20
2017-09-18T19:10:55.218Z,14.20
2017-09-18T19:13:22.955Z,14.20
2017-09-18T19:15:51.325Z,14.20
2017-09-18T19:18:18.913Z,14.20
2017-09-18T19:20:46.716Z,14.20
2017-09-18T19:23:14.309Z,14.20
2017-09-18T19:25:42.888Z,14.10
2017-09-18T19:28:10.546Z,14.10
2017-09-18T19:30:38.887Z,14.10
2017-09-18T19:33:06.510Z,14.00
2017-09-18T19:35:34.137Z,14.00
2017-09-18T19:38:01.752Z,14.00
2017-09-18T19:40:30.131Z,13.90
2017-09-18T19:42:57.781Z,13.90
2017-09-18T19:45:25.387Z,13.90
2017-09-18T19:47:53.757Z,13.90
2017-09-18T19:50:22.154Z,13.80
2017-09-18T19:52:49.738Z,13.80
2017-09-18T19:55:17.319Z,13.80
2017-09-18T19:57:45.716Z,13.80
2017-09-18T20:00:13.304Z,13.70
2017-09-18T20:02:40.883Z,13.80
2017-09-18T20:05:08.533Z,13.70
2017-09-18T20:07:36.120Z,13.70
2017-09-18T20:10:04.471Z,13.70
2017-09-18T20:12:32.093Z,13.70
2017-09-18T20:14:59.679Z,13.70
2017-09-18T20:17:27.277Z,13.70
2017-09-18T20:19:55.755Z,13.70
2017-09-18T20:22:23.339Z,13.70
2017-09-18T20:24:50.922Z,13.70
2017-09-18T20:27:18.763Z,13.70
2017-09-18T20:29:46.361Z,13.70
2017-09-18T20:32:13.948Z,13.60
2017-09-18T20:34:41.596Z,13.60
2017-09-18T20:37:09.175Z,13.60
2017-09-18T20:39:36.769Z,13.50
2017-09-18T20:42:05.168Z,13.50
2017-09-18T20:44:32.743Z,13.50
2017-09-18T20:47:00.365Z,13.50
2017-09-18T20:49:28.092Z,13.50
2017-09-18T20:51:55.694Z,13.50
2017-09-18T20:54:23.289Z,13.50
2017-09-18T20:56:50.938Z,13.50
2017-09-18T20:59:18.525Z,13.50
2017-09-18T21:01:46.107Z,13.50
2017-09-18T21:04:13.814Z,13.40
2017-09-18T21:06:41.404Z,13.30
2017-09-18T21:09:08.978Z,13.30
2017-09-18T21:11:36.618Z,13.30
2017-09-18T21:14:04.195Z,13.20
2017-09-18T21:16:31.790Z,13.20
2017-09-18T21:18:59.432Z,13.10
2017-09-18T21:21:27.305Z,13.10
2017-09-18T21:23:54.891Z,13.10
2017-09-18T21:26:29.256Z,13.10
2017-09-18T21:28:56.839Z,13.10
2017-09-18T21:31:24.418Z,13.10
2017-09-18T21:33:52.048Z,13.20
2017-09-18T21:36:20.412Z,13.10
2017-09-18T21:38:47.990Z,13.10
2017-09-18T21:41:15.625Z,13.10
2017-09-18T21:43:43.199Z,13.10
2017-09-18T21:46:10.776Z,13.00
2017-09-18T21:48:39.280Z,13.00
2017-09-18T21:51:06.862Z,13.00
2017-09-18T21:53:34.453Z,13.00
2017-09-18T21:56:03.620Z,12.90
2017-09-18T21:58:31.958Z,12.80
2017-09-18T22:00:59.534Z,12.80
2017-09-18T22:06:07.392Z,12.80
2017-09-18T22:11:26.335Z,12.70
2017-09-18T22:13:54.687Z,12.70
2017-09-18T22:16:26.877Z,12.70
2017-09-18T22:18:54.481Z,12.70
2017-09-18T22:32:48.016Z,12.50
2017-09-18T22:35:15.611Z,12.50
2017-09-18T22:43:25.903Z,12.30
2017-09-18T22:45:53.492Z,12.40
2017-09-18T22:48:24.828Z,12.40
2017-09-18T22:50:52.476Z,12.40
2017-09-18T22:59:22.558Z,12.40
2017-09-18T23:04:41.676Z,12.30
2017-09-18T23:10:00.610Z,12.30
2017-09-18T23:12:28.225Z,12.30
2017-09-18T23:20:37.047Z,12.20
2017-09-18T23:23:04.667Z,12.20
2017-09-18T23:31:17.236Z,12.10
2017-09-18T23:33:46.953Z,12.10
2017-09-18T23:36:14.615Z,12.10
2017-09-18T23:38:42.211Z,12.10
2017-09-18T23:41:09.818Z,12.00
2017-09-18T23:43:42.065Z,12.00
2017-09-18T23:46:09.671Z,12.00
2017-09-18T23:48:38.892Z,12.10
2017-09-18T23:51:06.551Z,12.10
2017-09-18T23:53:34.163Z,12.10
2017-09-18T23:56:01.780Z,12.10
2017-09-18T23:58:30.207Z,12.10
